createdAt,value
2018-04-11T00:00:26.598Z,77.65
2018-04-11T00:02:52.436Z,76.41
2018-04-11T00:05:18.273Z,77.18
2018-04-11T00:07:44.126Z,77.36
2018-04-11T00:10:09.984Z,77.97
2018-04-11T00:12:35.833Z,78.30
2018-04-11T00:15:01.667Z,77.78
2018-04-11T00:17:27.505Z,77.93
2018-04-11T00:19:53.365Z,78.07
2018-04-11T00:22:19.212Z,78.48
2018-04-11T00:24:45.063Z,79.00
2018-04-11T00:27:10.941Z,79.70
2018-04-11T00:29:36.812Z,79.69
2018-04-11T00:32:02.695Z,79.57
2018-04-11T00:34:28.560Z,79.18
2018-04-11T00:36:54.421Z,79.63
2018-04-11T00:39:20.253Z,79.97
2018-04-11T00:41:46.115Z,81.51
2018-04-11T00:44:11.933Z,81.69
2018-04-11T00:46:37.769Z,81.86
2018-04-11T00:49:03.609Z,81.91
2018-04-11T00:51:29.429Z,82.28
2018-04-11T00:53:55.253Z,82.21
2018-04-11T00:56:21.078Z,82.68
2018-04-11T00:58:46.956Z,82.98
2018-04-11T01:01:12.796Z,83.30
2018-04-11T01:03:38.613Z,84.00
2018-04-11T01:06:04.433Z,84.84
2018-04-11T01:08:30.273Z,84.36
2018-04-11T01:10:56.090Z,83.62
2018-04-11T01:13:21.928Z,84.12
2018-04-11T01:15:47.752Z,84.68
2018-04-11T01:18:13.597Z,84.47
2018-04-11T01:20:39.430Z,85.19
2018-04-11T01:23:05.254Z,84.62
2018-04-11T01:25:31.082Z,84.77
2018-04-11T01:27:56.939Z,85.10
2018-04-11T01:30:22.827Z,85.62
2018-04-11T01:32:48.672Z,85.49
2018-04-11T01:35:14.548Z,85.40
2018-04-11T01:37:40.379Z,86.13
2018-04-11T01:40:06.256Z,85.57
2018-04-11T01:42:32.118Z,85.66
2018-04-11T01:44:57.996Z,86.27
2018-04-11T01:47:23.828Z,86.24
2018-04-11T01:49:49.668Z,85.62
2018-04-11T01:52:15.512Z,85.97
2018-04-11T01:54:41.369Z,85.83
2018-04-11T01:57:07.212Z,86.09
2018-04-11T01:59:33.057Z,86.71
2018-04-11T02:01:58.904Z,86.87
2018-04-11T02:04:24.758Z,86.87
2018-04-11T02:06:50.619Z,86.15
2018-04-11T02:09:16.502Z,86.94
2018-04-11T02:11:42.388Z,85.90
2018-04-11T02:14:08.247Z,85.80
2018-04-11T02:16:34.145Z,86.54
2018-04-11T02:18:59.980Z,86.52
2018-04-11T02:21:25.868Z,86.15
2018-04-11T02:23:51.694Z,86.94
2018-04-11T02:26:17.582Z,87.79
2018-04-11T02:28:43.452Z,88.81
2018-04-11T02:31:09.308Z,88.70
2018-04-11T02:33:35.168Z,89.48
2018-04-11T02:36:01.021Z,89.19
2018-04-11T02:38:26.884Z,89.57
2018-04-11T02:40:52.761Z,89.91
2018-04-11T02:43:18.640Z,89.72
2018-04-11T02:45:44.519Z,90.12
2018-04-11T02:48:10.380Z,90.31
2018-04-11T02:50:36.241Z,90.25
2018-04-11T02:53:02.092Z,90.66
2018-04-11T02:55:27.927Z,90.45
2018-04-11T02:57:53.768Z,90.46
2018-04-11T03:00:19.646Z,90.38
2018-04-11T03:02:45.555Z,89.30
2018-04-11T03:05:11.416Z,89.41
2018-04-11T03:07:37.284Z,88.34
2018-04-11T03:10:03.216Z,87.11
2018-04-11T03:12:29.067Z,87.22
2018-04-11T03:14:54.905Z,87.01
2018-04-11T03:17:20.748Z,87.12
2018-04-11T03:19:46.578Z,86.98
2018-04-11T03:22:12.429Z,87.23
2018-04-11T03:24:38.289Z,87.26
2018-04-11T03:27:04.152Z,87.29
2018-04-11T03:29:30.020Z,87.45
2018-04-11T03:31:55.866Z,87.43
2018-04-11T03:34:21.756Z,87.30
2018-04-11T03:36:47.615Z,87.90
2018-04-11T03:39:13.474Z,88.38
2018-04-11T03:41:39.334Z,88.27
2018-04-11T03:44:05.181Z,87.88
2018-04-11T03:46:31.036Z,87.78
2018-04-11T03:48:56.891Z,87.72
2018-04-11T03:51:22.777Z,89.50
2018-04-11T03:53:48.611Z,88.29
2018-04-11T03:56:14.459Z,87.37
2018-04-11T03:58:40.295Z,87.48
2018-04-11T04:01:06.149Z,87.54
2018-04-11T04:03:32.013Z,87.88
2018-04-11T04:05:57.860Z,88.03
2018-04-11T04:08:23.722Z,87.98
2018-04-11T04:10:49.597Z,88.07
2018-04-11T04:13:15.513Z,88.05
2018-04-11T04:15:53.689Z,88.12
2018-04-11T04:18:31.888Z,88.24
2018-04-11T04:20:57.705Z,87.66
2018-04-11T04:23:23.567Z,87.60
2018-04-11T04:25:49.453Z,88.95
2018-04-11T04:28:15.312Z,88.33
2018-04-11T04:30:41.177Z,89.22
2018-04-11T04:33:07.076Z,88.88
2018-04-11T04:35:32.968Z,89.42
2018-04-11T04:37:58.809Z,89.97
2018-04-11T04:40:24.633Z,91.10
2018-04-11T04:42:50.478Z,90.52
2018-04-11T04:45:16.418Z,90.41
2018-04-11T04:47:42.241Z,91.51
2018-04-11T04:50:08.070Z,91.12
2018-04-11T04:52:33.924Z,90.28
2018-04-11T04:54:59.805Z,90.10
2018-04-11T04:57:25.713Z,90.73
2018-04-11T04:59:51.564Z,90.93
2018-04-11T05:02:17.608Z,91.21
2018-04-11T05:04:43.506Z,91.83
2018-04-11T05:07:09.364Z,91.68
2018-04-11T05:09:35.227Z,91.44
2018-04-11T05:12:01.085Z,90.72
2018-04-11T05:14:26.943Z,90.28
2018-04-11T05:16:52.780Z,90.23
2018-04-11T05:19:18.636Z,89.41
2018-04-11T05:21:44.488Z,88.68
2018-04-11T05:24:10.345Z,88.30
2018-04-11T05:26:36.168Z,88.01
2018-04-11T05:29:02.041Z,88.08
2018-04-11T05:31:27.871Z,87.49
2018-04-11T05:33:53.744Z,87.51
2018-04-11T05:36:19.616Z,87.65
2018-04-11T05:38:45.708Z,89.41
2018-04-11T05:41:11.553Z,90.96
2018-04-11T05:43:37.459Z,91.01
2018-04-11T05:46:03.369Z,90.15
2018-04-11T05:48:29.208Z,89.87
2018-04-11T05:50:55.032Z,89.39
2018-04-11T05:53:20.851Z,89.35
2018-04-11T05:55:46.721Z,89.72
2018-04-11T05:58:12.585Z,91.11
2018-04-11T06:00:38.482Z,90.80
2018-04-11T06:03:04.332Z,90.22
2018-04-11T06:05:30.193Z,89.84
2018-04-11T06:07:56.105Z,90.85
2018-04-11T06:10:21.996Z,89.97
2018-04-11T06:12:47.860Z,88.88
2018-04-11T06:15:13.701Z,88.42
2018-04-11T06:17:39.552Z,87.69
2018-04-11T06:20:05.403Z,88.11
2018-04-11T06:22:31.242Z,89.15
2018-04-11T06:24:57.095Z,89.20
2018-04-11T06:27:22.933Z,89.01
2018-04-11T06:29:48.812Z,89.25
2018-04-11T06:32:14.672Z,89.65
2018-04-11T06:34:40.528Z,89.70
2018-04-11T06:37:06.401Z,89.36
2018-04-11T06:39:32.253Z,89.36
2018-04-11T06:41:58.196Z,89.02
2018-04-11T06:44:24.038Z,88.69
2018-04-11T06:46:49.906Z,89.10
2018-04-11T06:49:15.786Z,89.20
2018-04-11T06:51:41.660Z,88.57
2018-04-11T06:54:07.545Z,89.52
2018-04-11T06:56:33.428Z,88.70
2018-04-11T06:58:59.260Z,89.86
2018-04-11T07:01:25.116Z,88.90
2018-04-11T07:03:51.005Z,89.47
2018-04-11T07:06:16.849Z,88.31
2018-04-11T07:08:42.689Z,86.22
2018-04-11T07:11:08.491Z,85.63
2018-04-11T07:13:34.341Z,85.52
2018-04-11T07:16:00.157Z,86.88
2018-04-11T07:18:26.000Z,87.51
2018-04-11T07:20:51.844Z,87.90
2018-04-11T07:23:17.678Z,87.53
2018-04-11T07:25:43.518Z,88.31
2018-04-11T07:28:09.414Z,86.48
2018-04-11T07:30:35.268Z,86.11
2018-04-11T07:33:01.132Z,86.24
2018-04-11T07:35:26.978Z,86.17
2018-04-11T07:37:52.832Z,87.61
2018-04-11T07:40:18.715Z,85.17
2018-04-11T07:42:44.540Z,85.43
2018-04-11T07:45:10.411Z,86.61
2018-04-11T07:47:36.225Z,85.45
2018-04-11T07:50:02.075Z,84.85
2018-04-11T07:52:27.947Z,83.52
2018-04-11T07:54:53.801Z,81.78
2018-04-11T07:57:19.617Z,82.08
2018-04-11T07:59:45.465Z,82.72
2018-04-11T08:02:11.313Z,82.02
2018-04-11T08:04:37.174Z,81.46
2018-04-11T08:07:03.005Z,82.76
2018-04-11T08:09:28.880Z,82.31
2018-04-11T08:11:54.718Z,82.14
2018-04-11T08:14:20.635Z,82.78
2018-04-11T08:16:46.500Z,82.75
2018-04-11T08:19:12.350Z,84.01
2018-04-11T08:21:38.217Z,84.07
2018-04-11T08:24:04.008Z,83.49
2018-04-11T08:26:29.876Z,82.51
2018-04-11T08:28:55.740Z,82.62
2018-04-11T08:31:21.612Z,83.58
2018-04-11T08:33:47.485Z,83.05
2018-04-11T08:36:13.381Z,83.67
2018-04-11T08:38:39.236Z,84.08
2018-04-11T08:41:05.132Z,82.98
2018-04-11T08:43:30.981Z,82.35
2018-04-11T08:45:56.868Z,83.67
2018-04-11T08:48:22.711Z,83.58
2018-04-11T08:50:48.568Z,84.53
2018-04-11T08:53:14.432Z,83.67
2018-04-11T08:55:40.284Z,83.68
2018-04-11T08:58:06.177Z,83.98
2018-04-11T09:00:32.028Z,82.40
2018-04-11T09:02:57.869Z,82.31
2018-04-11T09:05:23.820Z,81.64
2018-04-11T09:07:49.590Z,82.00
2018-04-11T09:10:15.401Z,78.98
2018-04-11T09:12:41.279Z,79.12
2018-04-11T09:15:07.139Z,79.88
2018-04-11T09:17:32.978Z,79.59
2018-04-11T09:19:58.844Z,77.49
2018-04-11T09:22:24.670Z,78.23
2018-04-11T09:24:50.523Z,77.52
2018-04-11T09:27:16.362Z,74.73
2018-04-11T09:29:42.207Z,75.67
2018-04-11T09:32:08.056Z,77.11
2018-04-11T09:34:33.923Z,75.16
2018-04-11T09:36:59.788Z,77.61
2018-04-11T09:39:25.649Z,79.67
2018-04-11T09:41:51.567Z,80.73
2018-04-11T09:44:17.374Z,79.05
2018-04-11T09:46:43.232Z,77.69
2018-04-11T09:49:09.086Z,77.96
2018-04-11T09:51:34.941Z,76.73
2018-04-11T09:54:00.786Z,75.96
2018-04-11T09:56:26.643Z,75.66
2018-04-11T09:58:52.501Z,76.30
2018-04-11T10:01:18.373Z,76.79
2018-04-11T10:03:45.078Z,75.65
2018-04-11T10:06:10.989Z,74.20
2018-04-11T10:08:36.830Z,74.31
2018-04-11T10:11:02.705Z,72.13
2018-04-11T10:13:28.568Z,68.38
2018-04-11T10:15:54.424Z,69.28
2018-04-11T10:18:20.294Z,69.74
2018-04-11T10:20:46.154Z,69.26
2018-04-11T10:23:12.025Z,66.94
2018-04-11T10:25:37.890Z,65.37
2018-04-11T10:28:03.770Z,63.03
2018-04-11T10:30:29.640Z,62.14
2018-04-11T10:32:55.488Z,62.27
2018-04-11T10:35:21.352Z,65.20
2018-04-11T10:37:47.231Z,65.27
2018-04-11T10:40:13.109Z,64.12
2018-04-11T10:42:38.932Z,63.04
2018-04-11T10:45:04.822Z,62.60
2018-04-11T10:47:30.705Z,63.73
2018-04-11T10:49:56.571Z,62.45
2018-04-11T10:52:22.436Z,60.36
2018-04-11T10:54:48.323Z,60.25
2018-04-11T10:57:14.174Z,60.92
2018-04-11T10:59:40.048Z,61.96
2018-04-11T11:02:05.930Z,60.78
2018-04-11T11:04:31.804Z,61.22
2018-04-11T11:06:57.658Z,60.07
2018-04-11T11:09:23.508Z,60.77
2018-04-11T11:11:49.355Z,56.89
2018-04-11T11:14:15.258Z,57.80
2018-04-11T11:16:41.080Z,57.21
2018-04-11T11:19:06.948Z,58.02
2018-04-11T11:21:32.777Z,59.64
2018-04-11T11:23:58.667Z,58.62
2018-04-11T11:26:24.561Z,58.93
2018-04-11T11:28:50.517Z,59.35
2018-04-11T11:31:16.425Z,58.44
2018-04-11T11:33:42.287Z,56.82
2018-04-11T11:36:08.151Z,56.42
2018-04-11T11:38:34.005Z,58.44
2018-04-11T11:40:59.878Z,59.94
2018-04-11T11:43:25.707Z,58.17
2018-04-11T11:45:51.603Z,58.00
2018-04-11T11:48:17.429Z,58.14
2018-04-11T11:50:43.263Z,59.57
2018-04-11T11:53:09.123Z,59.43
2018-04-11T11:55:34.957Z,58.61
2018-04-11T11:58:00.824Z,58.60
2018-04-11T12:00:26.676Z,55.80
2018-04-11T12:02:52.536Z,55.61
2018-04-11T12:05:18.386Z,57.38
2018-04-11T12:07:44.217Z,56.95
2018-04-11T12:10:10.076Z,56.98
2018-04-11T12:12:35.920Z,57.81
2018-04-11T12:15:01.769Z,57.23
2018-04-11T12:17:27.627Z,56.47
2018-04-11T12:19:53.460Z,56.96
2018-04-11T12:22:19.344Z,57.04
2018-04-11T12:24:45.185Z,54.20
2018-04-11T12:27:11.032Z,52.25
2018-04-11T12:29:36.959Z,51.10
2018-04-11T12:32:02.792Z,52.52
2018-04-11T12:34:28.649Z,51.03
2018-04-11T12:36:54.500Z,51.61
2018-04-11T12:39:20.347Z,50.75
2018-04-11T12:41:46.203Z,51.32
2018-04-11T12:44:12.067Z,51.32
2018-04-11T12:46:37.905Z,51.51
2018-04-11T12:49:03.792Z,50.17
2018-04-11T12:51:29.676Z,49.38
2018-04-11T12:53:55.569Z,48.53
2018-04-11T12:56:21.460Z,48.83
2018-04-11T12:58:47.317Z,48.78
2018-04-11T13:01:13.193Z,48.39
2018-04-11T13:03:39.012Z,47.80
2018-04-11T13:06:04.871Z,45.91
2018-04-11T13:08:30.729Z,46.27
2018-04-11T13:10:56.581Z,45.18
2018-04-11T13:13:22.425Z,44.20
2018-04-11T13:15:48.293Z,42.53
2018-04-11T13:18:14.175Z,41.58
2018-04-11T13:20:40.032Z,39.92
2018-04-11T13:23:05.891Z,39.83
2018-04-11T13:25:31.777Z,36.74
2018-04-11T13:27:57.657Z,35.91
2018-04-11T13:30:23.506Z,36.18
2018-04-11T13:32:49.387Z,35.40
2018-04-11T13:35:15.232Z,35.96
2018-04-11T13:37:41.125Z,36.29
2018-04-11T13:40:06.989Z,35.47
2018-04-11T13:42:32.863Z,36.60
2018-04-11T13:44:58.741Z,36.35
2018-04-11T13:47:24.672Z,37.16
2018-04-11T13:49:50.524Z,35.52
2018-04-11T13:52:16.394Z,36.44
2018-04-11T13:54:42.272Z,36.93
2018-04-11T13:57:08.120Z,36.20
2018-04-11T13:59:34.283Z,36.47
2018-04-11T14:02:00.218Z,39.07
2018-04-11T14:04:26.143Z,39.63
2018-04-11T14:06:52.021Z,40.12
2018-04-11T14:09:17.929Z,37.74
2018-04-11T14:11:43.800Z,37.71
2018-04-11T14:14:09.676Z,36.75
2018-04-11T14:16:35.561Z,40.08
2018-04-11T14:19:01.426Z,44.59
2018-04-11T14:21:27.301Z,44.57
2018-04-11T14:23:53.193Z,46.29
2018-04-11T14:26:19.082Z,49.33
2018-04-11T14:28:44.928Z,47.15
2018-04-11T14:31:10.843Z,48.59
2018-04-11T14:33:36.701Z,47.77
2018-04-11T14:36:02.602Z,47.21
2018-04-11T14:38:28.476Z,47.31
2018-04-11T14:40:54.434Z,45.29
2018-04-11T14:43:20.261Z,47.52
2018-04-11T14:45:46.155Z,46.34
2018-04-11T14:48:12.082Z,44.52
2018-04-11T14:50:38.741Z,42.97
2018-04-11T14:53:04.625Z,43.67
2018-04-11T14:55:30.536Z,43.23
2018-04-11T14:57:56.392Z,43.70
2018-04-11T15:00:22.270Z,42.16
2018-04-11T15:02:48.352Z,41.37
2018-04-11T15:05:14.243Z,40.85
2018-04-11T15:07:40.153Z,40.12
2018-04-11T15:10:06.018Z,42.27
2018-04-11T15:12:31.890Z,46.84
2018-04-11T15:14:57.743Z,49.07
2018-04-11T15:17:23.632Z,48.89
2018-04-11T15:19:49.552Z,49.78
2018-04-11T15:22:15.441Z,52.72
2018-04-11T15:24:41.321Z,53.34
2018-04-11T15:27:07.831Z,54.56
2018-04-11T15:29:33.743Z,54.64
2018-04-11T15:32:01.201Z,52.87
2018-04-11T15:34:27.164Z,52.84
2018-04-11T15:36:52.998Z,51.96
2018-04-11T15:39:18.901Z,52.79
2018-04-11T15:41:44.806Z,53.15
2018-04-11T15:44:10.676Z,54.06
2018-04-11T15:46:37.555Z,55.26
2018-04-11T15:49:04.331Z,54.69
2018-04-11T15:51:30.229Z,55.07
2018-04-11T15:53:56.747Z,55.93
2018-04-11T15:56:22.602Z,56.49
2018-04-11T15:58:48.527Z,55.56
2018-04-11T16:01:14.418Z,54.20
2018-04-11T16:03:40.329Z,52.30
2018-04-11T16:06:06.201Z,51.80
2018-04-11T16:08:32.139Z,52.91
2018-04-11T16:10:59.053Z,52.36
2018-04-11T16:13:27.681Z,54.31
2018-04-11T16:15:56.919Z,54.14
2018-04-11T16:18:22.854Z,55.48
2018-04-11T16:20:48.733Z,55.63
2018-04-11T16:23:14.631Z,56.73
2018-04-11T16:25:40.528Z,56.45
2018-04-11T16:28:06.452Z,56.41
2018-04-11T16:30:32.355Z,56.88
2018-04-11T16:32:58.273Z,56.52
2018-04-11T16:35:24.601Z,57.37
2018-04-11T16:37:50.560Z,57.33
2018-04-11T16:40:16.460Z,57.84
2018-04-11T16:42:42.358Z,56.85
2018-04-11T16:45:08.408Z,57.21
2018-04-11T16:47:34.343Z,57.53
2018-04-11T16:50:00.196Z,57.20
2018-04-11T16:52:26.093Z,57.24
2018-04-11T16:54:51.952Z,57.68
2018-04-11T16:57:17.818Z,57.75
2018-04-11T16:59:43.784Z,58.29
2018-04-11T17:02:09.681Z,56.77
2018-04-11T17:04:35.597Z,55.82
2018-04-11T17:07:01.518Z,55.85
2018-04-11T17:09:27.443Z,55.56
2018-04-11T17:11:53.318Z,55.53
2018-04-11T17:14:19.305Z,55.51
2018-04-11T17:16:45.180Z,55.22
2018-04-11T17:19:11.107Z,55.46
2018-04-11T17:21:49.222Z,55.58
2018-04-11T17:24:27.317Z,55.35
2018-04-11T17:27:05.565Z,55.85
2018-04-11T17:29:43.837Z,55.64
2018-04-11T17:32:09.755Z,55.88
2018-04-11T17:34:35.660Z,56.41
2018-04-11T17:37:01.556Z,56.33
2018-04-11T17:39:27.449Z,56.78
2018-04-11T17:41:53.365Z,57.50
2018-04-11T17:44:19.289Z,57.29
2018-04-11T17:46:45.202Z,57.41
2018-04-11T17:49:11.092Z,57.69
2018-04-11T17:51:37.007Z,57.57
2018-04-11T17:54:02.936Z,57.94
2018-04-11T17:56:28.855Z,57.56
2018-04-11T17:58:54.717Z,58.02
2018-04-11T18:01:20.592Z,58.94
2018-04-11T18:03:46.478Z,58.88
2018-04-11T18:06:12.452Z,58.69
2018-04-11T18:08:39.336Z,58.79
2018-04-11T18:11:05.236Z,59.17
2018-04-11T18:13:31.178Z,59.97
2018-04-11T18:15:57.082Z,59.72
2018-04-11T18:18:23.001Z,59.88
2018-04-11T18:20:48.827Z,59.18
2018-04-11T18:23:14.703Z,59.33
2018-04-11T18:25:40.605Z,59.31
2018-04-11T18:28:06.526Z,59.35
2018-04-11T18:30:32.894Z,59.22
2018-04-11T18:32:59.060Z,60.51
2018-04-11T18:35:24.986Z,60.61
2018-04-11T18:37:50.865Z,60.33
2018-04-11T18:40:16.861Z,60.58
2018-04-11T18:42:42.872Z,61.33
2018-04-11T18:45:08.790Z,61.72
2018-04-11T18:47:34.709Z,62.83
2018-04-11T18:50:00.598Z,64.14
2018-04-11T18:52:26.488Z,65.24
2018-04-11T18:54:52.408Z,65.29
2018-04-11T18:57:18.392Z,65.31
2018-04-11T18:59:44.269Z,65.43
2018-04-11T19:02:10.187Z,65.54
2018-04-11T19:04:36.065Z,65.89
2018-04-11T19:07:01.983Z,66.32
2018-04-11T19:09:27.872Z,66.59
2018-04-11T19:11:53.741Z,67.24
2018-04-11T19:14:19.626Z,67.16
2018-04-11T19:16:45.517Z,67.48
2018-04-11T19:19:12.382Z,68.44
2018-04-11T19:21:38.327Z,69.53
2018-04-11T19:24:05.004Z,69.05
2018-04-11T19:26:30.921Z,69.08
2018-04-11T19:28:56.862Z,68.59
2018-04-11T19:31:22.742Z,69.29
2018-04-11T19:33:48.626Z,69.21
2018-04-11T19:39:15.784Z,69.16
2018-04-11T19:41:41.657Z,70.31
2018-04-11T19:44:07.566Z,69.93
2018-04-11T19:46:33.535Z,69.74
2018-04-11T19:48:59.536Z,70.03
2018-04-11T19:51:25.465Z,69.51
2018-04-11T19:53:51.357Z,69.83
2018-04-11T19:56:17.496Z,70.23
2018-04-11T19:58:43.454Z,70.49
2018-04-11T20:01:09.339Z,71.13
2018-04-11T20:03:36.329Z,70.68
2018-04-11T20:06:02.254Z,70.92
2018-04-11T20:08:28.161Z,70.48
2018-04-11T20:10:54.056Z,71.16
2018-04-11T20:13:20.012Z,71.85
2018-04-11T20:15:45.923Z,72.19
2018-04-11T20:18:11.861Z,71.98
2018-04-11T20:20:37.767Z,71.90
2018-04-11T20:23:03.690Z,71.58
2018-04-11T20:25:29.582Z,71.92
2018-04-11T20:27:55.494Z,72.11
2018-04-11T20:30:21.405Z,72.62
2018-04-11T20:32:47.278Z,73.60
2018-04-11T20:35:13.151Z,73.59
2018-04-11T20:37:39.085Z,73.16
2018-04-11T20:40:04.961Z,72.95
2018-04-11T20:42:30.825Z,72.80
2018-04-11T20:44:56.721Z,74.12
2018-04-11T20:47:22.588Z,73.57
2018-04-11T20:49:48.448Z,73.46
2018-04-11T20:52:14.365Z,73.85
2018-04-11T20:54:40.249Z,74.14
2018-04-11T20:57:06.142Z,74.27
2018-04-11T20:59:31.982Z,74.31
2018-04-11T21:01:57.810Z,73.92
2018-04-11T21:04:23.666Z,75.20
2018-04-11T21:06:49.545Z,75.50
2018-04-11T21:09:15.405Z,76.11
2018-04-11T21:11:41.284Z,75.81
2018-04-11T21:14:07.122Z,74.85
2018-04-11T21:16:33.001Z,74.56
2018-04-11T21:18:58.876Z,74.72
2018-04-11T21:21:24.748Z,75.82
2018-04-11T21:23:50.598Z,75.94
2018-04-11T21:26:16.456Z,76.05
2018-04-11T21:28:42.312Z,75.96
2018-04-11T21:31:08.168Z,75.67
2018-04-11T21:33:34.074Z,76.39
2018-04-11T21:35:59.972Z,75.93
2018-04-11T21:38:25.836Z,76.60
2018-04-11T21:40:51.676Z,75.80
2018-04-11T21:43:17.532Z,76.47
2018-04-11T21:45:43.401Z,77.47
2018-04-11T21:48:09.241Z,77.05
2018-04-11T21:50:35.117Z,77.08
2018-04-11T21:53:00.975Z,78.30
2018-04-11T21:55:26.864Z,78.75
2018-04-11T21:57:52.721Z,77.44
2018-04-11T22:00:18.598Z,77.31
2018-04-11T22:02:44.465Z,76.96
2018-04-11T22:05:10.344Z,76.69
2018-04-11T22:07:36.224Z,76.57
2018-04-11T22:10:02.086Z,77.18
2018-04-11T22:12:27.959Z,76.96
2018-04-11T22:14:53.817Z,77.42
2018-04-11T22:17:19.692Z,76.83
2018-04-11T22:19:45.541Z,76.84
2018-04-11T22:22:11.429Z,77.56
2018-04-11T22:24:37.286Z,77.23
2018-04-11T22:27:03.220Z,77.08
2018-04-11T22:29:29.153Z,76.70
2018-04-11T22:31:55.026Z,77.32
2018-04-11T22:34:20.937Z,77.26
2018-04-11T22:36:46.812Z,77.40
2018-04-11T22:39:12.640Z,77.13
2018-04-11T22:41:38.472Z,77.21
2018-04-11T22:44:04.348Z,77.03
2018-04-11T22:46:30.217Z,76.98
2018-04-11T22:48:56.072Z,76.43
2018-04-11T22:51:21.948Z,75.25
2018-04-11T22:53:47.840Z,74.45
2018-04-11T22:56:13.730Z,73.91
2018-04-11T22:58:39.604Z,73.70
2018-04-11T23:01:05.550Z,73.46
2018-04-11T23:03:31.440Z,73.49
2018-04-11T23:05:57.281Z,73.00
2018-04-11T23:08:23.137Z,72.83
2018-04-11T23:10:49.059Z,72.40
2018-04-11T23:13:14.933Z,71.79
2018-04-11T23:15:40.832Z,71.67
2018-04-11T23:18:06.693Z,71.69
2018-04-11T23:20:32.593Z,71.62
2018-04-11T23:22:58.524Z,71.18
2018-04-11T23:25:24.381Z,71.07
2018-04-11T23:27:50.245Z,70.93
2018-04-11T23:30:16.120Z,70.66
2018-04-11T23:32:41.986Z,70.46
2018-04-11T23:35:07.872Z,70.16
2018-04-11T23:37:33.750Z,70.27
2018-04-11T23:39:59.639Z,70.40
2018-04-11T23:42:25.485Z,70.26
2018-04-11T23:44:51.376Z,70.55
2018-04-11T23:47:17.215Z,69.97
2018-04-11T23:49:43.058Z,70.01
2018-04-11T23:52:08.884Z,70.33
2018-04-11T23:54:34.694Z,70.21
2018-04-11T23:57:00.552Z,70.16
2018-04-11T23:59:26.393Z,70.26
